Bettina K — PBEW — position and weather

sailwx.info

Track history (hours):
 
Tides and Currents Weather Stations Pressure Air Temp Water Temp Dewpoint Dewpoint Depression Visibility Wind Speed Wind Dir Waves Ship Positions

Bettina K

Last reported at 2017-Jan-22 07:22 UTC. Time now 2017-Jan-24 17:17 UTC.
Position N 55°34' E 015°15'.

Length 82 m; draft 4.4 m.

Type: Cargo ship. MMSI: 244730469.

Date/timePositionNaut miles runAvg speedWind from/ knotsBaromVisibWave heightAir tempDewpointWater temp
2017-Jan-22 07:22N 55°34' E 015°15'8 9.4
2017-Jan-22 06:33N 55°30' E 015°04'10 9.5
2017-Jan-22 05:33N 55°26' E 014°49'9 9.5
2017-Jan-22 04:33N 55°20' E 014°36'9 9.2
2017-Jan-22 03:33N 55°13' E 014°26'9 9.3
2017-Jan-22 02:33N 55°06' E 014°14'50 9.4
2017-Jan-21 21:17N 54°46' E 012°55'7 9.4
2017-Jan-21 20:33N 54°44' E 012°44'9 9.4
2017-Jan-21 19:33N 54°38' E 012°31'13 9.4
2017-Jan-21 18:08N 54°28' E 012°15'5 9.0
2017-Jan-21 17:33N 54°25' E 012°09'9 9.4
2017-Jan-21 16:33N 54°25' E 011°53'11 9.1
2017-Jan-21 15:21N 54°28' E 011°35'7 9.1
2017-Jan-21 14:33N 54°31' E 011°23'8 8.2
2017-Jan-21 13:33N 54°34' E 011°10'8 8.5
2017-Jan-21 12:33N 54°35' E 010°56'9 9.4
2017-Jan-21 11:33N 54°34' E 010°40'56 7.0
2017-Jan-21 03:33N 54°04' E 009°19'8 8.3
2017-Jan-21 02:34N 53°56' E 009°13'4 3.9
2017-Jan-21 01:33N 53°54' E 009°09'5 4.7
2017-Jan-21 00:34N 53°51' E 009°01'7 6.5
2017-Jan-20 23:33N 53°50' E 008°51'5 5.4
2017-Jan-20 22:33N 53°53' E 008°42'6 5.6
2017-Jan-20 21:33N 53°57' E 008°37'7 7.4
2017-Jan-20 20:33N 53°59' E 008°25'8 8.2
2017-Jan-20 19:33N 53°59' E 008°11'9 9.3
2017-Jan-20 18:32N 53°57' E 007°55'10 9.7
2017-Jan-20 17:29N 53°55' E 007°38'1010.0
2017-Jan-20 16:28N 53°52' E 007°22'5710.9
2017-Jan-20 11:14N 53°37' E 005°49'810.7
2017-Jan-20 10:32N 53°35' E 005°37'1110.5
2017-Jan-20 09:32N 53°32' E 005°19'1010.0
2017-Jan-20 08:33N 53°29' E 005°04'10 9.6
2017-Jan-20 07:33N 53°25' E 004°49'9 8.6
2017-Jan-20 06:32N 53°19' E 004°39'9 9.1
2017-Jan-20 05:31N 53°10' E 004°32'9 9.0
2017-Jan-20 04:33N 53°03' E 004°25'9 8.8
2017-Jan-20 03:33N 52°55' E 004°19'9 8.7
2017-Jan-20 02:33N 52°47' E 004°12'9 8.7
2017-Jan-20 01:33N 52°40' E 004°04'9 8.9
2017-Jan-20 00:33N 52°32' E 003°56'9 9.1
2017-Jan-19 23:33N 52°24' E 003°53'10 9.6
2017-Jan-19 22:33N 52°14' E 003°54'1110.6
2017-Jan-19 21:33N 52°04' E 003°57'10 9.7
2017-Jan-19 20:33N 51°58' E 004°09'7 7.3
2017-Jan-19 19:32N 51°54' E 004°19'0 0.2
2017-Jan-19 18:33N 51°54' E 004°19'0 0.0
2017-Jan-19 17:29N 51°54' E 004°19'0 0.0
2017-Jan-19 16:32N 51°54' E 004°19'0 0.0
2017-Jan-19 15:32N 51°54' E 004°19'0 0.0
2017-Jan-19 14:29N 51°54' E 004°19'0 0.0
2017-Jan-19 13:29N 51°54' E 004°19'0 0.0
2017-Jan-19 12:29N 51°54' E 004°19'0 0.0
2017-Jan-19 11:32N 51°54' E 004°19'0 0.0
2017-Jan-19 10:32N 51°54' E 004°19'0 0.0
2017-Jan-19 09:30N 51°54' E 004°19'0 0.0
2017-Jan-19 08:32N 51°54' E 004°19'0 0.0
2017-Jan-19 07:32N 51°54' E 004°19'0 0.0
2017-Jan-19 06:33N 51°54' E 004°19'0 0.0
2017-Jan-19 05:33N 51°54' E 004°19'5 5.1
2017-Jan-19 04:34N 51°56' E 004°12'9 8.8
2017-Jan-19 03:34N 52°00' E 003°59'8 7.8
2017-Jan-19 02:33N 51°60' E 003°47'7 6.6
2017-Jan-19 01:33N 51°57' E 003°37'7 7.2
2017-Jan-19 00:33N 51°55' E 003°26'7 6.7
2017-Jan-18 23:33N 51°53' E 003°15'7 6.8
2017-Jan-18 22:32N 51°52' E 003°04'30 7.5
2017-Jan-18 18:28N 51°53' E 002°15'8 8.4
2017-Jan-18 17:33N 51°51' E 002°03'9 9.1
2017-Jan-18 16:34N 51°49' E 001°49'9 8.7
2017-Jan-18 15:33N 51°49' E 001°35'8 7.9
2017-Jan-18 14:33N 51°44' E 001°25'7 7.3
2017-Jan-18 13:33N 51°39' E 001°16'7 7.0
2017-Jan-18 12:33N 51°34' E 001°08'7 7.2
2017-Jan-18 11:32N 51°31' E 000°58'9 8.9
2017-Jan-18 10:34N 51°30' E 000°44'1010.4
2017-Jan-18 09:33N 51°29' E 000°27'5 4.7
2017-Jan-18 08:33N 51°28' E 000°20'0 0.0
2017-Jan-18 07:33N 51°28' E 000°20'0 0.0
2017-Jan-18 06:33N 51°28' E 000°20'0 0.0
2017-Jan-18 05:33N 51°28' E 000°20'0 0.0
2017-Jan-18 04:33N 51°28' E 000°20'0 0.0
2017-Jan-18 03:33N 51°28' E 000°20'0 0.0
2017-Jan-18 02:33N 51°28' E 000°20'0 0.0
2017-Jan-18 01:33N 51°28' E 000°20'0 0.0
2017-Jan-18 00:33N 51°28' E 000°20'0 0.0
2017-Jan-17 23:33N 51°28' E 000°20'0 0.0
2017-Jan-17 22:33N 51°28' E 000°20'0 0.0
2017-Jan-17 21:33N 51°28' E 000°20'0 0.0
2017-Jan-17 20:33N 51°28' E 000°20'0 0.0
2017-Jan-17 19:33N 51°28' E 000°20'0 0.0
2017-Jan-17 18:33N 51°28' E 000°20'0 0.0
2017-Jan-17 17:33N 51°28' E 000°20'0 0.0
2017-Jan-17 16:33N 51°28' E 000°20'0 0.0
2017-Jan-17 15:33N 51°28' E 000°20'0 0.0
2017-Jan-17 14:33N 51°28' E 000°20'0 0.0
2017-Jan-17 13:33N 51°28' E 000°20'0 0.0
2017-Jan-17 12:33N 51°28' E 000°20'1 1.0
2017-Jan-17 11:33N 51°27' E 000°21'8 7.8
2017-Jan-17 10:33N 51°30' E 000°32'9 8.9
2017-Jan-17 09:33N 51°30' E 000°46'8 7.7
2017-Jan-17 08:33N 51°30' E 000°59'6 5.8
2017-Jan-17 07:33N 51°30' E 001°08'4 4.0
2017-Jan-17 06:33N 51°29' E 001°14'5 3.8
2017-Jan-17 05:16N 51°28' E 001°22'4 3.9
2017-Jan-17 04:17N 51°28' E 001°28'3 4.6
2017-Jan-17 03:33N 51°26' E 001°32'10 9.7
2017-Jan-17 02:33N 51°17' E 001°36'9 9.3
2017-Jan-17 01:33N 51°08' E 001°38'8 7.7
2017-Jan-17 00:32N 51°01' E 001°32'74 7.4
2017-Jan-16 14:32N 50°19' W 000°04'4611.3
2017-Jan-16 10:29N 50°07' W 001°13'1212.8
2017-Jan-16 09:34N 50°03' W 001°30'1212.1
2017-Jan-16 08:33N 50°00' W 001°49'133 8.3
2017-Jan-15 16:32N 48°52' W 004°45'9 9.4
2017-Jan-15 15:33N 48°47' W 004°57'9 8.7
2017-Jan-15 14:33N 48°42' W 005°07'8 7.7
2017-Jan-15 13:33N 48°37' W 005°16'7 6.8
2017-Jan-15 12:30N 48°31' W 005°23'5 5.7
2017-Jan-15 11:33N 48°26' W 005°25'8 5.8
2017-Jan-15 10:10N 48°18' W 005°23'4 5.8
2017-Jan-15 09:32N 48°15' W 005°22'7 6.2
2017-Jan-15 08:26N 48°08' W 005°20'8 6.5
2017-Jan-15 07:11N 48°01' W 005°15'4 6.8
2017-Jan-15 06:33N 47°57' W 005°12'7 7.1
2017-Jan-15 05:33N 47°51' W 005°05'8 7.6
2017-Jan-15 04:33N 47°46' W 004°56'80 8.0
2017-Jan-14 18:30N 46°57' W 003°22'7 7.3
2017-Jan-14 17:33N 46°54' W 003°14'46 7.5
2017-Jan-14 11:28N 46°26' W 002°21'7 8.2
2017-Jan-14 10:33N 46°22' W 002°12'8 8.2
2017-Jan-14 09:33N 46°17' W 002°02'8 8.4
2017-Jan-14 08:33N 46°13' W 001°51'8 8.4
2017-Jan-14 07:33N 46°09' W 001°41'9 8.6
2017-Jan-14 06:33N 46°07' W 001°29'9 9.0
2017-Jan-14 05:33N 46°07' W 001°16'3 3.2
2017-Jan-14 04:28N 46°09' W 001°13'0 0.0
2017-Jan-14 03:28N 46°09' W 001°13'0 0.0
2017-Jan-13 23:25N 46°09' W 001°13'0 0.0
2017-Jan-13 22:25N 46°09' W 001°13'0 0.0
2017-Jan-13 21:16N 46°09' W 001°13'0 0.0
2017-Jan-13 20:04N 46°09' W 001°13'0 0.0
2017-Jan-13 19:28N 46°09' W 001°13'0 0.0
2017-Jan-13 18:19N 46°09' W 001°13'0 0.0
2017-Jan-13 17:04N 46°09' W 001°13'0 0.0
2017-Jan-13 15:16N 46°09' W 001°13'0 0.0
2017-Jan-13 14:07N 46°09' W 001°13'0 0.0
2017-Jan-13 13:19N 46°09' W 001°13'0 0.0
2017-Jan-13 12:31N 46°09' W 001°13'0 0.0
2017-Jan-13 11:25N 46°09' W 001°13'0 0.0
2017-Jan-13 10:10N 46°09' W 001°13'0 0.0
2017-Jan-13 09:28N 46°09' W 001°13'0 0.0
2017-Jan-13 08:31N 46°09' W 001°13'0 0.0
2017-Jan-13 07:31N 46°09' W 001°13'0 0.0
2017-Jan-13 06:31N 46°09' W 001°13'0 0.0
2017-Jan-13 05:31N 46°09' W 001°13'0 0.0
2017-Jan-13 04:31N 46°09' W 001°13'0 0.0
2017-Jan-13 03:31N 46°09' W 001°13'0 0.0
2017-Jan-13 02:25N 46°09' W 001°13'0 0.0
2017-Jan-13 01:31N 46°09' W 001°13'0 0.0
2017-Jan-13 00:31N 46°09' W 001°13'0 0.0
2017-Jan-12 23:25N 46°09' W 001°13'0 0.0
2017-Jan-12 22:31N 46°09' W 001°13'0 0.0
2017-Jan-12 21:31N 46°09' W 001°13'0 0.0
2017-Jan-12 20:31N 46°09' W 001°13'0 0.0
2017-Jan-12 19:31N 46°09' W 001°13'0 0.0
2017-Jan-12 18:31N 46°09' W 001°13'0 0.0
2017-Jan-12 17:31N 46°09' W 001°13'0 0.0
2017-Jan-12 16:31N 46°09' W 001°13'0 0.0
2017-Jan-12 15:31N 46°09' W 001°13'0 0.0
2017-Jan-12 14:31N 46°09' W 001°13'0 0.0
2017-Jan-12 13:31N 46°09' W 001°13'0 0.0
2017-Jan-12 12:31N 46°09' W 001°13'0 0.0
2017-Jan-12 11:31N 46°09' W 001°13'0 0.0
2017-Jan-12 10:19N 46°09' W 001°13'0 0.0
2017-Jan-12 09:31N 46°09' W 001°13'0 0.0
2017-Jan-12 08:31N 46°09' W 001°13'0 0.0
2017-Jan-12 07:31N 46°09' W 001°13'  
Track history (hours):
 
Tides and Currents Weather Stations Pressure Air Temp Water Temp Dewpoint Dewpoint Depression Visibility Wind Speed Wind Dir Waves Ship Positions

Bettina K

Last reported at 2017-Jan-22 07:22 UTC. Time now 2017-Jan-24 17:17 UTC.
Position N 55°34' E 015°15'.

Length 82 m; draft 4.4 m.

Type: Cargo ship. MMSI: 244730469.

Date/timePositionNaut miles runAvg speedWind from/ knotsBaromVisibWave heightAir tempDewpointWater temp
2017-Jan-22 07:22N 55°34' E 015°15'8 9.4
2017-Jan-22 06:33N 55°30' E 015°04'10 9.5
2017-Jan-22 05:33N 55°26' E 014°49'9 9.5
2017-Jan-22 04:33N 55°20' E 014°36'9 9.2
2017-Jan-22 03:33N 55°13' E 014°26'9 9.3
2017-Jan-22 02:33N 55°06' E 014°14'50 9.4
2017-Jan-21 21:17N 54°46' E 012°55'7 9.4
2017-Jan-21 20:33N 54°44' E 012°44'9 9.4
2017-Jan-21 19:33N 54°38' E 012°31'13 9.4
2017-Jan-21 18:08N 54°28' E 012°15'5 9.0
2017-Jan-21 17:33N 54°25' E 012°09'9 9.4
2017-Jan-21 16:33N 54°25' E 011°53'11 9.1
2017-Jan-21 15:21N 54°28' E 011°35'7 9.1
2017-Jan-21 14:33N 54°31' E 011°23'8 8.2
2017-Jan-21 13:33N 54°34' E 011°10'8 8.5
2017-Jan-21 12:33N 54°35' E 010°56'9 9.4
2017-Jan-21 11:33N 54°34' E 010°40'56 7.0
2017-Jan-21 03:33N 54°04' E 009°19'8 8.3
2017-Jan-21 02:34N 53°56' E 009°13'4 3.9
2017-Jan-21 01:33N 53°54' E 009°09'5 4.7
2017-Jan-21 00:34N 53°51' E 009°01'7 6.5
2017-Jan-20 23:33N 53°50' E 008°51'5 5.4
2017-Jan-20 22:33N 53°53' E 008°42'6 5.6
2017-Jan-20 21:33N 53°57' E 008°37'7 7.4
2017-Jan-20 20:33N 53°59' E 008°25'8 8.2
2017-Jan-20 19:33N 53°59' E 008°11'9 9.3
2017-Jan-20 18:32N 53°57' E 007°55'10 9.7
2017-Jan-20 17:29N 53°55' E 007°38'1010.0
2017-Jan-20 16:28N 53°52' E 007°22'5710.9
2017-Jan-20 11:14N 53°37' E 005°49'810.7
2017-Jan-20 10:32N 53°35' E 005°37'1110.5
2017-Jan-20 09:32N 53°32' E 005°19'1010.0
2017-Jan-20 08:33N 53°29' E 005°04'10 9.6
2017-Jan-20 07:33N 53°25' E 004°49'9 8.6
2017-Jan-20 06:32N 53°19' E 004°39'9 9.1
2017-Jan-20 05:31N 53°10' E 004°32'9 9.0
2017-Jan-20 04:33N 53°03' E 004°25'9 8.8
2017-Jan-20 03:33N 52°55' E 004°19'9 8.7
2017-Jan-20 02:33N 52°47' E 004°12'9 8.7
2017-Jan-20 01:33N 52°40' E 004°04'9 8.9
2017-Jan-20 00:33N 52°32' E 003°56'9 9.1
2017-Jan-19 23:33N 52°24' E 003°53'10 9.6
2017-Jan-19 22:33N 52°14' E 003°54'1110.6
2017-Jan-19 21:33N 52°04' E 003°57'10 9.7
2017-Jan-19 20:33N 51°58' E 004°09'7 7.3
2017-Jan-19 19:32N 51°54' E 004°19'0 0.2
2017-Jan-19 18:33N 51°54' E 004°19'0 0.0
2017-Jan-19 17:29N 51°54' E 004°19'0 0.0
2017-Jan-19 16:32N 51°54' E 004°19'0 0.0
2017-Jan-19 15:32N 51°54' E 004°19'0 0.0
2017-Jan-19 14:29N 51°54' E 004°19'0 0.0
2017-Jan-19 13:29N 51°54' E 004°19'0 0.0
2017-Jan-19 12:29N 51°54' E 004°19'0 0.0
2017-Jan-19 11:32N 51°54' E 004°19'0 0.0
2017-Jan-19 10:32N 51°54' E 004°19'0 0.0
2017-Jan-19 09:30N 51°54' E 004°19'0 0.0
2017-Jan-19 08:32N 51°54' E 004°19'0 0.0
2017-Jan-19 07:32N 51°54' E 004°19'0 0.0
2017-Jan-19 06:33N 51°54' E 004°19'0 0.0
2017-Jan-19 05:33N 51°54' E 004°19'5 5.1
2017-Jan-19 04:34N 51°56' E 004°12'9 8.8
2017-Jan-19 03:34N 52°00' E 003°59'8 7.8
2017-Jan-19 02:33N 51°60' E 003°47'7 6.6
2017-Jan-19 01:33N 51°57' E 003°37'7 7.2
2017-Jan-19 00:33N 51°55' E 003°26'7 6.7
2017-Jan-18 23:33N 51°53' E 003°15'7 6.8
2017-Jan-18 22:32N 51°52' E 003°04'30 7.5
2017-Jan-18 18:28N 51°53' E 002°15'8 8.4
2017-Jan-18 17:33N 51°51' E 002°03'9 9.1
2017-Jan-18 16:34N 51°49' E 001°49'9 8.7
2017-Jan-18 15:33N 51°49' E 001°35'8 7.9
2017-Jan-18 14:33N 51°44' E 001°25'7 7.3
2017-Jan-18 13:33N 51°39' E 001°16'7 7.0
2017-Jan-18 12:33N 51°34' E 001°08'7 7.2
2017-Jan-18 11:32N 51°31' E 000°58'9 8.9
2017-Jan-18 10:34N 51°30' E 000°44'1010.4
2017-Jan-18 09:33N 51°29' E 000°27'5 4.7
2017-Jan-18 08:33N 51°28' E 000°20'0 0.0
2017-Jan-18 07:33N 51°28' E 000°20'0 0.0
2017-Jan-18 06:33N 51°28' E 000°20'0 0.0
2017-Jan-18 05:33N 51°28' E 000°20'0 0.0
2017-Jan-18 04:33N 51°28' E 000°20'0 0.0
2017-Jan-18 03:33N 51°28' E 000°20'0 0.0
2017-Jan-18 02:33N 51°28' E 000°20'0 0.0
2017-Jan-18 01:33N 51°28' E 000°20'0 0.0
2017-Jan-18 00:33N 51°28' E 000°20'0 0.0
2017-Jan-17 23:33N 51°28' E 000°20'0 0.0
2017-Jan-17 22:33N 51°28' E 000°20'0 0.0
2017-Jan-17 21:33N 51°28' E 000°20'0 0.0
2017-Jan-17 20:33N 51°28' E 000°20'0 0.0
2017-Jan-17 19:33N 51°28' E 000°20'0 0.0
2017-Jan-17 18:33N 51°28' E 000°20'0 0.0
2017-Jan-17 17:33N 51°28' E 000°20'0 0.0
2017-Jan-17 16:33N 51°28' E 000°20'0 0.0
2017-Jan-17 15:33N 51°28' E 000°20'0 0.0
2017-Jan-17 14:33N 51°28' E 000°20'0 0.0
2017-Jan-17 13:33N 51°28' E 000°20'0 0.0
2017-Jan-17 12:33N 51°28' E 000°20'1 1.0
2017-Jan-17 11:33N 51°27' E 000°21'8 7.8
2017-Jan-17 10:33N 51°30' E 000°32'9 8.9
2017-Jan-17 09:33N 51°30' E 000°46'8 7.7
2017-Jan-17 08:33N 51°30' E 000°59'6 5.8
2017-Jan-17 07:33N 51°30' E 001°08'4 4.0
2017-Jan-17 06:33N 51°29' E 001°14'5 3.8
2017-Jan-17 05:16N 51°28' E 001°22'4 3.9
2017-Jan-17 04:17N 51°28' E 001°28'3 4.6
2017-Jan-17 03:33N 51°26' E 001°32'10 9.7
2017-Jan-17 02:33N 51°17' E 001°36'9 9.3
2017-Jan-17 01:33N 51°08' E 001°38'8 7.7
2017-Jan-17 00:32N 51°01' E 001°32'74 7.4
2017-Jan-16 14:32N 50°19' W 000°04'4611.3
2017-Jan-16 10:29N 50°07' W 001°13'1212.8
2017-Jan-16 09:34N 50°03' W 001°30'1212.1
2017-Jan-16 08:33N 50°00' W 001°49'133 8.3
2017-Jan-15 16:32N 48°52' W 004°45'9 9.4
2017-Jan-15 15:33N 48°47' W 004°57'9 8.7
2017-Jan-15 14:33N 48°42' W 005°07'8 7.7
2017-Jan-15 13:33N 48°37' W 005°16'7 6.8
2017-Jan-15 12:30N 48°31' W 005°23'5 5.7
2017-Jan-15 11:33N 48°26' W 005°25'8 5.8
2017-Jan-15 10:10N 48°18' W 005°23'4 5.8
2017-Jan-15 09:32N 48°15' W 005°22'7 6.2
2017-Jan-15 08:26N 48°08' W 005°20'8 6.5
2017-Jan-15 07:11N 48°01' W 005°15'4 6.8
2017-Jan-15 06:33N 47°57' W 005°12'7 7.1
2017-Jan-15 05:33N 47°51' W 005°05'8 7.6
2017-Jan-15 04:33N 47°46' W 004°56'80 8.0
2017-Jan-14 18:30N 46°57' W 003°22'7 7.3
2017-Jan-14 17:33N 46°54' W 003°14'46 7.5
2017-Jan-14 11:28N 46°26' W 002°21'7 8.2
2017-Jan-14 10:33N 46°22' W 002°12'8 8.2
2017-Jan-14 09:33N 46°17' W 002°02'8 8.4
2017-Jan-14 08:33N 46°13' W 001°51'8 8.4
2017-Jan-14 07:33N 46°09' W 001°41'9 8.6
2017-Jan-14 06:33N 46°07' W 001°29'9 9.0
2017-Jan-14 05:33N 46°07' W 001°16'3 3.2
2017-Jan-14 04:28N 46°09' W 001°13'0 0.0
2017-Jan-14 03:28N 46°09' W 001°13'0 0.0
2017-Jan-13 23:25N 46°09' W 001°13'0 0.0
2017-Jan-13 22:25N 46°09' W 001°13'0 0.0
2017-Jan-13 21:16N 46°09' W 001°13'0 0.0
2017-Jan-13 20:04N 46°09' W 001°13'0 0.0
2017-Jan-13 19:28N 46°09' W 001°13'0 0.0
2017-Jan-13 18:19N 46°09' W 001°13'0 0.0
2017-Jan-13 17:04N 46°09' W 001°13'0 0.0
2017-Jan-13 15:16N 46°09' W 001°13'0 0.0
2017-Jan-13 14:07N 46°09' W 001°13'0 0.0
2017-Jan-13 13:19N 46°09' W 001°13'0 0.0
2017-Jan-13 12:31N 46°09' W 001°13'0 0.0
2017-Jan-13 11:25N 46°09' W 001°13'0 0.0
2017-Jan-13 10:10N 46°09' W 001°13'0 0.0
2017-Jan-13 09:28N 46°09' W 001°13'0 0.0
2017-Jan-13 08:31N 46°09' W 001°13'0 0.0
2017-Jan-13 07:31N 46°09' W 001°13'0 0.0
2017-Jan-13 06:31N 46°09' W 001°13'0 0.0
2017-Jan-13 05:31N 46°09' W 001°13'0 0.0
2017-Jan-13 04:31N 46°09' W 001°13'0 0.0
2017-Jan-13 03:31N 46°09' W 001°13'0 0.0
2017-Jan-13 02:25N 46°09' W 001°13'0 0.0
2017-Jan-13 01:31N 46°09' W 001°13'0 0.0
2017-Jan-13 00:31N 46°09' W 001°13'0 0.0
2017-Jan-12 23:25N 46°09' W 001°13'0 0.0
2017-Jan-12 22:31N 46°09' W 001°13'0 0.0
2017-Jan-12 21:31N 46°09' W 001°13'0 0.0
2017-Jan-12 20:31N 46°09' W 001°13'0 0.0
2017-Jan-12 19:31N 46°09' W 001°13'0 0.0
2017-Jan-12 18:31N 46°09' W 001°13'0 0.0
2017-Jan-12 17:31N 46°09' W 001°13'0 0.0
2017-Jan-12 16:31N 46°09' W 001°13'0 0.0
2017-Jan-12 15:31N 46°09' W 001°13'0 0.0
2017-Jan-12 14:31N 46°09' W 001°13'0 0.0
2017-Jan-12 13:31N 46°09' W 001°13'0 0.0
2017-Jan-12 12:31N 46°09' W 001°13'0 0.0
2017-Jan-12 11:31N 46°09' W 001°13'0 0.0
2017-Jan-12 10:19N 46°09' W 001°13'0 0.0
2017-Jan-12 09:31N 46°09' W 001°13'0 0.0
2017-Jan-12 08:31N 46°09' W 001°13'0 0.0
2017-Jan-12 07:31N 46°09' W 001°13'  

Dump ship's entire track history